Accueil
METAR-TAF:

METAR-TAF

Aéroports :

Pago Pago, Îles mineures éloignées des États-Unis

Aéroport de Pago Pago

latitude: 14-20S, longitude: 170-43W, altitude: 3 m

Observation

Le bulletin a été fait il y a 1 heure et 1 minutes, à 02:50 UTC
Vent 6 kt de direction variable
Température 30°C
Humidité 79%
Pression 1008 hPa
Visibilité: 19.3 km
Quelques nuages à une hauteur de 1600 ft

METAR: NSTU 230250Z VRB06KT 12SM FEW016 30/26 A2976 RMK SLP080 8/100 T02970255 56014

Heure: 16:51 (03:51 UTC)

Prévision

Le bulletin a été fait il y a 4 heures et 22 minutes, à 23:29 UTC
Prévision valable du 23 à 00 UTC au 23 à 24 UTC
Vent 5 kt de sud-est
Visibilité: 10 km
Nuages épars à une hauteur de 2000 ft
Nuages épars à une hauteur de 4500 ft

TAF: NSTU 222329Z 2300/2324 14005KT P6SM SCT020 SCT045

Observations et prévisions météorologiques de plus de 4000 aéroports (messages METAR et TAF).

Les stations disponibles sont représentées par des disques jaunes et rouges sur la carte.

Passer la souris dessus pour voir le nom de la station.

Cliquer dessus pour voir les observations et prévisions météorologiques.

Pour changer de carte: cliquez sur les boutons verts avec une croix noire pour zoomer, sur le bouton vert avec un tiret pour effectuer un zoom arrière, ou sur les flèches vertes pour les cartes adjacentes.


METAR-TAF: